Lakewood, Washington
Current Conditions -  °F | °C
As of 4:10 PM on Friday 28 Nov 2014 (Local Time) from KTCM Reporting Station
Light Rain Light Rain  
Wind Chill: 34°   Ceiling: 500
Heat Index: 39°   Visibility: 5mi
Dew Point: 39°   Wind: 7mph
Humidity: 100%   Direction: NA
Pressure: 29.49"   Gusts: NA
Location:  47.17°N, 122.51°W
Report Text: KTCM 290010Z AUTO VRB06KT 5SM -RA BR BKN005 BKN012 OVC025 04/04 A2949 RMK AO2 RAB0003DZE0003 BKN005 V OVC $
Loading
Personal Weather Stations






























Interactive Weather Map New forecast layout! Learn more

10-Day Weather Forecast

Advertisements
Track Severe Weather on mobile